Moku Pahu — WBWK — position and weather

sailwx.info

Track history (hours):
 
Tides and Currents Weather Stations Pressure Air Temp Water Temp Dewpoint Dewpoint Depression Visibility Wind Speed Wind Dir Waves Ship Positions

Moku Pahu

Owner: MATSON NAVIGATION, RALEIGH, NC. More information available from US FCC via Universal Licensing System and Coast Guard Vessel Documentation Center.

Last reported at 2015-Jun-30 21:20 UTC. Time now 2015-Jul-01 16:56 UTC.
Position N 36°29' W 125°28'.

Type: Ship. MMSI: 366857000.

Date/timePositionNaut miles runAvg speedWind from/ knotsBaromVisibWave heightAir tempDewpointWater temp
2015-Jun-30 21:20N 36°29' W 125°28'34 9.1
2015-Jun-30 17:33N 36°46' W 124°51'9 9.1
2015-Jun-30 16:33N 36°50' W 124°41'12 9.2
2015-Jun-30 15:15N 36°57' W 124°29'6 9.0
2015-Jun-30 14:33N 36°60' W 124°22'9 8.8
2015-Jun-30 13:33N 37°04' W 124°12'9 8.9
2015-Jun-30 12:33N 37°08' W 124°03'9 8.9
2015-Jun-30 11:33N 37°12' W 123°53'9 9.2
2015-Jun-30 10:33N 37°17' W 123°43'10 9.6
2015-Jun-30 09:33N 37°22' W 123°32'9 9.3
2015-Jun-30 08:33N 37°26' W 123°22'9 9.2
2015-Jun-30 07:33N 37°31' W 123°12'10 9.6
2015-Jun-30 06:33N 37°35' W 123°01'1111.5
2015-Jun-30 05:33N 37°42' W 122°49'1111.2
2015-Jun-30 04:33N 37°46' W 122°36'1110.7
2015-Jun-30 03:33N 37°49' W 122°23'5 4.7
2015-Jun-30 02:32N 37°48' W 122°17'0 0.0
2015-Jun-30 01:32N 37°48' W 122°17'0 0.0
2015-Jun-30 00:33N 37°48' W 122°17'0 0.0
2015-Jun-29 23:32N 37°48' W 122°17'0 0.0
2015-Jun-29 22:32N 37°48' W 122°17'0 0.0
2015-Jun-29 21:33N 37°48' W 122°17'0 0.0
2015-Jun-29 20:33N 37°48' W 122°17'0 0.0
2015-Jun-29 19:31N 37°48' W 122°17'0 0.0
2015-Jun-29 18:32N 37°48' W 122°17'0 0.0
2015-Jun-29 17:32N 37°48' W 122°17'0 0.0
2015-Jun-29 16:33N 37°48' W 122°17'0 0.0
2015-Jun-29 15:28N 37°48' W 122°17'0 0.0
2015-Jun-29 14:31N 37°48' W 122°17'0 0.0
2015-Jun-29 13:32N 37°48' W 122°17'0 0.0
2015-Jun-29 12:29N 37°48' W 122°17'0 0.0
2015-Jun-29 11:33N 37°48' W 122°17'0 0.0
2015-Jun-29 10:31N 37°48' W 122°17'0 0.0
2015-Jun-29 09:31N 37°48' W 122°17'0 0.0
2015-Jun-29 08:32N 37°48' W 122°17'0 0.0
2015-Jun-29 07:33N 37°48' W 122°17'0 0.0
2015-Jun-29 06:33N 37°48' W 122°17'0 0.0
2015-Jun-29 05:31N 37°48' W 122°17'0 0.0
2015-Jun-29 04:29N 37°48' W 122°17'0 0.0
2015-Jun-29 03:32N 37°48' W 122°17'0 0.0
2015-Jun-29 02:33N 37°48' W 122°17'0 0.0
2015-Jun-29 01:33N 37°48' W 122°17'0 0.0
2015-Jun-29 00:33N 37°48' W 122°17'0 0.0
2015-Jun-28 23:33N 37°48' W 122°17'0 0.0
2015-Jun-28 22:30N 37°48' W 122°17'0 0.0
2015-Jun-28 21:31N 37°48' W 122°17'0 0.0
2015-Jun-28 20:28N 37°48' W 122°17'0 0.0
2015-Jun-28 19:31N 37°48' W 122°17'0 0.0
2015-Jun-28 18:32N 37°48' W 122°17'0 0.0
2015-Jun-28 17:33N 37°48' W 122°17'0 0.0
2015-Jun-28 16:33N 37°48' W 122°17'0 0.0
2015-Jun-28 15:31N 37°48' W 122°17'0 0.0
2015-Jun-28 14:32N 37°48' W 122°17'0 0.0
2015-Jun-28 13:32N 37°48' W 122°17'0 0.0
2015-Jun-28 12:33N 37°48' W 122°17'0 0.0
2015-Jun-28 11:34N 37°48' W 122°17'0 0.0
2015-Jun-28 10:31N 37°48' W 122°17'0 0.0
2015-Jun-28 09:32N 37°48' W 122°17'0 0.0
2015-Jun-28 08:32N 37°48' W 122°17'0 0.0
2015-Jun-28 07:33N 37°48' W 122°17'0 0.0
2015-Jun-28 06:31N 37°48' W 122°17'0 0.0
2015-Jun-28 05:31N 37°48' W 122°17'0 0.0
2015-Jun-28 04:32N 37°48' W 122°17'0 0.0
2015-Jun-28 03:33N 37°48' W 122°17'0 0.0
2015-Jun-28 02:33N 37°48' W 122°17'0 0.0
2015-Jun-28 01:31N 37°48' W 122°17'0 0.0
2015-Jun-28 00:32N 37°48' W 122°17'0 0.0
2015-Jun-27 23:32N 37°48' W 122°17'0 0.0
2015-Jun-27 22:33N 37°48' W 122°17'0 0.0
2015-Jun-27 21:31N 37°48' W 122°17'0 0.0
2015-Jun-27 20:31N 37°48' W 122°17'0 0.0
2015-Jun-27 19:32N 37°48' W 122°17'0 0.0
2015-Jun-27 18:32N 37°48' W 122°17'0 0.0
2015-Jun-27 17:33N 37°48' W 122°17'0 0.0
2015-Jun-27 16:28N 37°48' W 122°17'0 0.0
2015-Jun-27 15:31N 37°48' W 122°17'0 0.0
2015-Jun-27 14:32N 37°48' W 122°17'0 0.0
2015-Jun-27 13:30N 37°48' W 122°17'0 0.0
2015-Jun-27 12:33N 37°48' W 122°17'0 0.0
2015-Jun-27 11:31N 37°48' W 122°17'0 0.0
2015-Jun-27 10:32N 37°48' W 122°17'0 0.0
2015-Jun-27 09:32N 37°48' W 122°17'0 0.0
2015-Jun-27 08:33N 37°48' W 122°17'0 0.0
2015-Jun-27 07:34N 37°48' W 122°17'0 0.0
2015-Jun-27 06:31N 37°48' W 122°17'0 0.0
2015-Jun-27 05:32N 37°48' W 122°17'0 0.0
2015-Jun-27 04:32N 37°48' W 122°17'0 0.0
2015-Jun-27 03:33N 37°48' W 122°17'0 0.0
2015-Jun-27 02:31N 37°48' W 122°17'0 0.0
2015-Jun-27 01:32N 37°48' W 122°17'0 0.0
2015-Jun-27 00:32N 37°48' W 122°17'0 0.0
2015-Jun-26 23:32N 37°48' W 122°17'0 0.0
2015-Jun-26 22:33N 37°48' W 122°17'0 0.0
2015-Jun-26 21:30N 37°48' W 122°17'0 0.0
2015-Jun-26 20:31N 37°48' W 122°17'0 0.0
2015-Jun-26 19:32N 37°48' W 122°17'0 0.0
2015-Jun-26 18:32N 37°48' W 122°17'0 0.0
2015-Jun-26 17:33N 37°48' W 122°17'0 0.0
2015-Jun-26 16:33N 37°48' W 122°17'0 0.0
2015-Jun-26 15:28N 37°48' W 122°17'0 0.0
2015-Jun-26 14:32N 37°48' W 122°17'0 0.0
2015-Jun-26 13:29N 37°48' W 122°17'0 0.0
2015-Jun-26 12:33N 37°48' W 122°17'0 0.0
2015-Jun-26 11:31N 37°48' W 122°17'0 0.0
2015-Jun-26 10:31N 37°48' W 122°17'0 0.0
2015-Jun-26 09:32N 37°48' W 122°17'0 0.0
2015-Jun-26 08:30N 37°48' W 122°17'0 0.0
2015-Jun-26 07:33N 37°48' W 122°17'0 0.0
2015-Jun-26 06:31N 37°48' W 122°17'0 0.0
2015-Jun-26 05:32N 37°48' W 122°17'0 0.0
2015-Jun-26 04:32N 37°48' W 122°17'0 0.0
2015-Jun-26 03:33N 37°48' W 122°17'0 0.0
2015-Jun-26 02:33N 37°48' W 122°17'0 0.0
2015-Jun-26 01:31N 37°48' W 122°17'0 0.0
2015-Jun-26 00:32N 37°48' W 122°17'0 0.0
2015-Jun-25 23:32N 37°48' W 122°17'0 0.0
2015-Jun-25 22:33N 37°48' W 122°17'0 0.0
2015-Jun-25 21:31N 37°48' W 122°17'0 0.0
2015-Jun-25 20:28N 37°48' W 122°17'0 0.0
2015-Jun-25 19:29N 37°48' W 122°17'0 0.0
2015-Jun-25 18:33N 37°48' W 122°17'0 0.0
2015-Jun-25 17:33N 37°48' W 122°17'0 0.0
2015-Jun-25 16:31N 37°48' W 122°17'0 0.0
2015-Jun-25 15:32N 37°48' W 122°17'0 0.0
2015-Jun-25 14:32N 37°48' W 122°17'0 0.0
2015-Jun-25 13:33N 37°48' W 122°17'0 0.0
2015-Jun-25 12:33N 37°48' W 122°17'0 0.0
2015-Jun-25 11:28N 37°48' W 122°17'0 0.0
2015-Jun-25 10:29N 37°48' W 122°17'0 0.0
2015-Jun-25 09:29N 37°48' W 122°17'0 0.0
2015-Jun-25 08:30N 37°48' W 122°17'0 0.0
2015-Jun-25 07:31N 37°48' W 122°17'0 0.0
2015-Jun-25 06:31N 37°48' W 122°17'0 0.0
2015-Jun-25 05:32N 37°48' W 122°17'0 0.0
2015-Jun-25 04:33N 37°48' W 122°17'0 0.0
2015-Jun-25 03:33N 37°48' W 122°17'0 0.0
2015-Jun-25 02:31N 37°48' W 122°17'0 0.0
2015-Jun-25 01:32N 37°48' W 122°17'0 0.0
2015-Jun-25 00:29N 37°48' W 122°17'0 0.0
2015-Jun-24 23:30N 37°48' W 122°17'0 0.0
2015-Jun-24 22:33N 37°48' W 122°17'0 0.0
2015-Jun-24 21:31N 37°48' W 122°17'0 0.0
2015-Jun-24 20:32N 37°48' W 122°17'0 0.0
2015-Jun-24 19:32N 37°48' W 122°17'0 0.0
2015-Jun-24 18:33N 37°48' W 122°17'0 0.0
2015-Jun-24 17:31N 37°48' W 122°17'0 0.0
2015-Jun-24 16:31N 37°48' W 122°17'0 0.0
2015-Jun-24 15:32N 37°48' W 122°17'0 0.0
2015-Jun-24 14:29N 37°48' W 122°17'0 0.0
2015-Jun-24 13:33N 37°48' W 122°17'0 0.0
2015-Jun-24 12:25N 37°48' W 122°17'0 0.0
2015-Jun-24 11:31N 37°48' W 122°17'0 0.0
2015-Jun-24 10:32N 37°48' W 122°17'0 0.0
2015-Jun-24 09:33N 37°48' W 122°17'0 0.0
2015-Jun-24 08:33N 37°48' W 122°17'0 0.0
2015-Jun-24 07:31N 37°48' W 122°17'0 0.0
2015-Jun-24 06:29N 37°48' W 122°17'0 0.0
2015-Jun-24 05:29N 37°48' W 122°17'0 0.0
2015-Jun-24 04:33N 37°48' W 122°17'0 0.0
2015-Jun-24 03:34N 37°48' W 122°17'0 0.0
2015-Jun-24 02:28N 37°48' W 122°17'0 0.0
2015-Jun-24 01:32N 37°48' W 122°17'0 0.0
2015-Jun-24 00:32N 37°48' W 122°17'0 0.0
2015-Jun-23 23:33N 37°48' W 122°17'0 0.0
2015-Jun-23 22:28N 37°48' W 122°17'0 0.0
2015-Jun-23 21:31N 37°48' W 122°17'0 0.0
2015-Jun-23 20:32N 37°48' W 122°17'0 0.0
2015-Jun-23 19:30N 37°48' W 122°17'0 0.0
2015-Jun-23 19:03N 37°48' W 122°17'0 0.0
2015-Jun-22 19:33N 37°48' W 122°17'0 0.0
2015-Jun-22 18:31N 37°48' W 122°17'0 0.0
2015-Jun-22 17:28N 37°48' W 122°17'0 0.0
2015-Jun-22 16:32N 37°48' W 122°17'0 0.0
2015-Jun-22 15:30N 37°48' W 122°17'0 0.0
2015-Jun-22 14:33N 37°48' W 122°17'0 0.0
2015-Jun-22 13:31N 37°48' W 122°17'0 0.0
2015-Jun-22 12:26N 37°48' W 122°17'0 0.0
2015-Jun-22 11:32N 37°48' W 122°17'0 0.0
2015-Jun-22 10:33N 37°48' W 122°17'0 0.0
2015-Jun-22 09:28N 37°48' W 122°17'0 0.0
2015-Jun-22 08:31N 37°48' W 122°17'0 0.0
2015-Jun-22 07:29N 37°48' W 122°17'0 0.0
2015-Jun-22 06:30N 37°48' W 122°17'0 0.0
2015-Jun-22 05:33N 37°48' W 122°17'0 0.0
2015-Jun-22 04:31N 37°48' W 122°17'0 0.0
2015-Jun-22 03:32N 37°48' W 122°17'0 0.0
2015-Jun-22 02:32N 37°48' W 122°17'0 0.0
2015-Jun-22 01:33N 37°48' W 122°17'0 0.0
2015-Jun-22 00:33N 37°48' W 122°17'0 0.0
2015-Jun-21 23:31N 37°48' W 122°17'0 0.0
2015-Jun-21 22:32N 37°48' W 122°17'0 0.0
2015-Jun-21 21:32N 37°48' W 122°17'0 0.0
2015-Jun-21 20:30N 37°48' W 122°17'0 0.0
2015-Jun-21 19:28N 37°48' W 122°17'0 0.0
2015-Jun-21 18:31N 37°48' W 122°17'0 0.0
2015-Jun-21 17:32N 37°48' W 122°17'0 0.0
2015-Jun-21 16:33N 37°48' W 122°17'0 0.0
2015-Jun-21 15:33N 37°48' W 122°17'0 0.0
2015-Jun-21 14:28N 37°48' W 122°17'0 0.0
2015-Jun-21 13:29N 37°48' W 122°17'0 0.0
2015-Jun-21 12:32N 37°48' W 122°17'0 0.0
2015-Jun-21 11:33N 37°48' W 122°17'0 0.0
2015-Jun-21 10:34N 37°48' W 122°17'0 0.0
2015-Jun-21 09:31N 37°48' W 122°17'0 0.0
2015-Jun-21 08:32N 37°48' W 122°17'0 0.0
2015-Jun-21 07:33N 37°48' W 122°17'0 0.0
2015-Jun-21 06:33N 37°48' W 122°17'0 0.0
2015-Jun-21 05:31N 37°48' W 122°17'0 0.0
2015-Jun-21 04:32N 37°48' W 122°17'0 0.0
2015-Jun-21 03:29N 37°48' W 122°17'0 0.0
2015-Jun-21 02:30N 37°48' W 122°17'0 0.0
2015-Jun-21 01:33N 37°48' W 122°17'0 0.0
2015-Jun-21 00:31N 37°48' W 122°17'0 0.0
2015-Jun-20 23:32N 37°48' W 122°17'0 0.0
2015-Jun-20 22:32N 37°48' W 122°17'0 0.0
2015-Jun-20 21:33N 37°48' W 122°17'  
Track history (hours):
 
Tides and Currents Weather Stations Pressure Air Temp Water Temp Dewpoint Dewpoint Depression Visibility Wind Speed Wind Dir Waves Ship Positions

Moku Pahu

Owner: MATSON NAVIGATION, RALEIGH, NC. More information available from US FCC via Universal Licensing System and Coast Guard Vessel Documentation Center.

Last reported at 2015-Jun-30 21:20 UTC. Time now 2015-Jul-01 16:56 UTC.
Position N 36°29' W 125°28'.

Type: Ship. MMSI: 366857000.

Date/timePositionNaut miles runAvg speedWind from/ knotsBaromVisibWave heightAir tempDewpointWater temp
2015-Jun-30 21:20N 36°29' W 125°28'34 9.1
2015-Jun-30 17:33N 36°46' W 124°51'9 9.1
2015-Jun-30 16:33N 36°50' W 124°41'12 9.2
2015-Jun-30 15:15N 36°57' W 124°29'6 9.0
2015-Jun-30 14:33N 36°60' W 124°22'9 8.8
2015-Jun-30 13:33N 37°04' W 124°12'9 8.9
2015-Jun-30 12:33N 37°08' W 124°03'9 8.9
2015-Jun-30 11:33N 37°12' W 123°53'9 9.2
2015-Jun-30 10:33N 37°17' W 123°43'10 9.6
2015-Jun-30 09:33N 37°22' W 123°32'9 9.3
2015-Jun-30 08:33N 37°26' W 123°22'9 9.2
2015-Jun-30 07:33N 37°31' W 123°12'10 9.6
2015-Jun-30 06:33N 37°35' W 123°01'1111.5
2015-Jun-30 05:33N 37°42' W 122°49'1111.2
2015-Jun-30 04:33N 37°46' W 122°36'1110.7
2015-Jun-30 03:33N 37°49' W 122°23'5 4.7
2015-Jun-30 02:32N 37°48' W 122°17'0 0.0
2015-Jun-30 01:32N 37°48' W 122°17'0 0.0
2015-Jun-30 00:33N 37°48' W 122°17'0 0.0
2015-Jun-29 23:32N 37°48' W 122°17'0 0.0
2015-Jun-29 22:32N 37°48' W 122°17'0 0.0
2015-Jun-29 21:33N 37°48' W 122°17'0 0.0
2015-Jun-29 20:33N 37°48' W 122°17'0 0.0
2015-Jun-29 19:31N 37°48' W 122°17'0 0.0
2015-Jun-29 18:32N 37°48' W 122°17'0 0.0
2015-Jun-29 17:32N 37°48' W 122°17'0 0.0
2015-Jun-29 16:33N 37°48' W 122°17'0 0.0
2015-Jun-29 15:28N 37°48' W 122°17'0 0.0
2015-Jun-29 14:31N 37°48' W 122°17'0 0.0
2015-Jun-29 13:32N 37°48' W 122°17'0 0.0
2015-Jun-29 12:29N 37°48' W 122°17'0 0.0
2015-Jun-29 11:33N 37°48' W 122°17'0 0.0
2015-Jun-29 10:31N 37°48' W 122°17'0 0.0
2015-Jun-29 09:31N 37°48' W 122°17'0 0.0
2015-Jun-29 08:32N 37°48' W 122°17'0 0.0
2015-Jun-29 07:33N 37°48' W 122°17'0 0.0
2015-Jun-29 06:33N 37°48' W 122°17'0 0.0
2015-Jun-29 05:31N 37°48' W 122°17'0 0.0
2015-Jun-29 04:29N 37°48' W 122°17'0 0.0
2015-Jun-29 03:32N 37°48' W 122°17'0 0.0
2015-Jun-29 02:33N 37°48' W 122°17'0 0.0
2015-Jun-29 01:33N 37°48' W 122°17'0 0.0
2015-Jun-29 00:33N 37°48' W 122°17'0 0.0
2015-Jun-28 23:33N 37°48' W 122°17'0 0.0
2015-Jun-28 22:30N 37°48' W 122°17'0 0.0
2015-Jun-28 21:31N 37°48' W 122°17'0 0.0
2015-Jun-28 20:28N 37°48' W 122°17'0 0.0
2015-Jun-28 19:31N 37°48' W 122°17'0 0.0
2015-Jun-28 18:32N 37°48' W 122°17'0 0.0
2015-Jun-28 17:33N 37°48' W 122°17'0 0.0
2015-Jun-28 16:33N 37°48' W 122°17'0 0.0
2015-Jun-28 15:31N 37°48' W 122°17'0 0.0
2015-Jun-28 14:32N 37°48' W 122°17'0 0.0
2015-Jun-28 13:32N 37°48' W 122°17'0 0.0
2015-Jun-28 12:33N 37°48' W 122°17'0 0.0
2015-Jun-28 11:34N 37°48' W 122°17'0 0.0
2015-Jun-28 10:31N 37°48' W 122°17'0 0.0
2015-Jun-28 09:32N 37°48' W 122°17'0 0.0
2015-Jun-28 08:32N 37°48' W 122°17'0 0.0
2015-Jun-28 07:33N 37°48' W 122°17'0 0.0
2015-Jun-28 06:31N 37°48' W 122°17'0 0.0
2015-Jun-28 05:31N 37°48' W 122°17'0 0.0
2015-Jun-28 04:32N 37°48' W 122°17'0 0.0
2015-Jun-28 03:33N 37°48' W 122°17'0 0.0
2015-Jun-28 02:33N 37°48' W 122°17'0 0.0
2015-Jun-28 01:31N 37°48' W 122°17'0 0.0
2015-Jun-28 00:32N 37°48' W 122°17'0 0.0
2015-Jun-27 23:32N 37°48' W 122°17'0 0.0
2015-Jun-27 22:33N 37°48' W 122°17'0 0.0
2015-Jun-27 21:31N 37°48' W 122°17'0 0.0
2015-Jun-27 20:31N 37°48' W 122°17'0 0.0
2015-Jun-27 19:32N 37°48' W 122°17'0 0.0
2015-Jun-27 18:32N 37°48' W 122°17'0 0.0
2015-Jun-27 17:33N 37°48' W 122°17'0 0.0
2015-Jun-27 16:28N 37°48' W 122°17'0 0.0
2015-Jun-27 15:31N 37°48' W 122°17'0 0.0
2015-Jun-27 14:32N 37°48' W 122°17'0 0.0
2015-Jun-27 13:30N 37°48' W 122°17'0 0.0
2015-Jun-27 12:33N 37°48' W 122°17'0 0.0
2015-Jun-27 11:31N 37°48' W 122°17'0 0.0
2015-Jun-27 10:32N 37°48' W 122°17'0 0.0
2015-Jun-27 09:32N 37°48' W 122°17'0 0.0
2015-Jun-27 08:33N 37°48' W 122°17'0 0.0
2015-Jun-27 07:34N 37°48' W 122°17'0 0.0
2015-Jun-27 06:31N 37°48' W 122°17'0 0.0
2015-Jun-27 05:32N 37°48' W 122°17'0 0.0
2015-Jun-27 04:32N 37°48' W 122°17'0 0.0
2015-Jun-27 03:33N 37°48' W 122°17'0 0.0
2015-Jun-27 02:31N 37°48' W 122°17'0 0.0
2015-Jun-27 01:32N 37°48' W 122°17'0 0.0
2015-Jun-27 00:32N 37°48' W 122°17'0 0.0
2015-Jun-26 23:32N 37°48' W 122°17'0 0.0
2015-Jun-26 22:33N 37°48' W 122°17'0 0.0
2015-Jun-26 21:30N 37°48' W 122°17'0 0.0
2015-Jun-26 20:31N 37°48' W 122°17'0 0.0
2015-Jun-26 19:32N 37°48' W 122°17'0 0.0
2015-Jun-26 18:32N 37°48' W 122°17'0 0.0
2015-Jun-26 17:33N 37°48' W 122°17'0 0.0
2015-Jun-26 16:33N 37°48' W 122°17'0 0.0
2015-Jun-26 15:28N 37°48' W 122°17'0 0.0
2015-Jun-26 14:32N 37°48' W 122°17'0 0.0
2015-Jun-26 13:29N 37°48' W 122°17'0 0.0
2015-Jun-26 12:33N 37°48' W 122°17'0 0.0
2015-Jun-26 11:31N 37°48' W 122°17'0 0.0
2015-Jun-26 10:31N 37°48' W 122°17'0 0.0
2015-Jun-26 09:32N 37°48' W 122°17'0 0.0
2015-Jun-26 08:30N 37°48' W 122°17'0 0.0
2015-Jun-26 07:33N 37°48' W 122°17'0 0.0
2015-Jun-26 06:31N 37°48' W 122°17'0 0.0
2015-Jun-26 05:32N 37°48' W 122°17'0 0.0
2015-Jun-26 04:32N 37°48' W 122°17'0 0.0
2015-Jun-26 03:33N 37°48' W 122°17'0 0.0
2015-Jun-26 02:33N 37°48' W 122°17'0 0.0
2015-Jun-26 01:31N 37°48' W 122°17'0 0.0
2015-Jun-26 00:32N 37°48' W 122°17'0 0.0
2015-Jun-25 23:32N 37°48' W 122°17'0 0.0
2015-Jun-25 22:33N 37°48' W 122°17'0 0.0
2015-Jun-25 21:31N 37°48' W 122°17'0 0.0
2015-Jun-25 20:28N 37°48' W 122°17'0 0.0
2015-Jun-25 19:29N 37°48' W 122°17'0 0.0
2015-Jun-25 18:33N 37°48' W 122°17'0 0.0
2015-Jun-25 17:33N 37°48' W 122°17'0 0.0
2015-Jun-25 16:31N 37°48' W 122°17'0 0.0
2015-Jun-25 15:32N 37°48' W 122°17'0 0.0
2015-Jun-25 14:32N 37°48' W 122°17'0 0.0
2015-Jun-25 13:33N 37°48' W 122°17'0 0.0
2015-Jun-25 12:33N 37°48' W 122°17'0 0.0
2015-Jun-25 11:28N 37°48' W 122°17'0 0.0
2015-Jun-25 10:29N 37°48' W 122°17'0 0.0
2015-Jun-25 09:29N 37°48' W 122°17'0 0.0
2015-Jun-25 08:30N 37°48' W 122°17'0 0.0
2015-Jun-25 07:31N 37°48' W 122°17'0 0.0
2015-Jun-25 06:31N 37°48' W 122°17'0 0.0
2015-Jun-25 05:32N 37°48' W 122°17'0 0.0
2015-Jun-25 04:33N 37°48' W 122°17'0 0.0
2015-Jun-25 03:33N 37°48' W 122°17'0 0.0
2015-Jun-25 02:31N 37°48' W 122°17'0 0.0
2015-Jun-25 01:32N 37°48' W 122°17'0 0.0
2015-Jun-25 00:29N 37°48' W 122°17'0 0.0
2015-Jun-24 23:30N 37°48' W 122°17'0 0.0
2015-Jun-24 22:33N 37°48' W 122°17'0 0.0
2015-Jun-24 21:31N 37°48' W 122°17'0 0.0
2015-Jun-24 20:32N 37°48' W 122°17'0 0.0
2015-Jun-24 19:32N 37°48' W 122°17'0 0.0
2015-Jun-24 18:33N 37°48' W 122°17'0 0.0
2015-Jun-24 17:31N 37°48' W 122°17'0 0.0
2015-Jun-24 16:31N 37°48' W 122°17'0 0.0
2015-Jun-24 15:32N 37°48' W 122°17'0 0.0
2015-Jun-24 14:29N 37°48' W 122°17'0 0.0
2015-Jun-24 13:33N 37°48' W 122°17'0 0.0
2015-Jun-24 12:25N 37°48' W 122°17'0 0.0
2015-Jun-24 11:31N 37°48' W 122°17'0 0.0
2015-Jun-24 10:32N 37°48' W 122°17'0 0.0
2015-Jun-24 09:33N 37°48' W 122°17'0 0.0
2015-Jun-24 08:33N 37°48' W 122°17'0 0.0
2015-Jun-24 07:31N 37°48' W 122°17'0 0.0
2015-Jun-24 06:29N 37°48' W 122°17'0 0.0
2015-Jun-24 05:29N 37°48' W 122°17'0 0.0
2015-Jun-24 04:33N 37°48' W 122°17'0 0.0
2015-Jun-24 03:34N 37°48' W 122°17'0 0.0
2015-Jun-24 02:28N 37°48' W 122°17'0 0.0
2015-Jun-24 01:32N 37°48' W 122°17'0 0.0
2015-Jun-24 00:32N 37°48' W 122°17'0 0.0
2015-Jun-23 23:33N 37°48' W 122°17'0 0.0
2015-Jun-23 22:28N 37°48' W 122°17'0 0.0
2015-Jun-23 21:31N 37°48' W 122°17'0 0.0
2015-Jun-23 20:32N 37°48' W 122°17'0 0.0
2015-Jun-23 19:30N 37°48' W 122°17'0 0.0
2015-Jun-23 19:03N 37°48' W 122°17'0 0.0
2015-Jun-22 19:33N 37°48' W 122°17'0 0.0
2015-Jun-22 18:31N 37°48' W 122°17'0 0.0
2015-Jun-22 17:28N 37°48' W 122°17'0 0.0
2015-Jun-22 16:32N 37°48' W 122°17'0 0.0
2015-Jun-22 15:30N 37°48' W 122°17'0 0.0
2015-Jun-22 14:33N 37°48' W 122°17'0 0.0
2015-Jun-22 13:31N 37°48' W 122°17'0 0.0
2015-Jun-22 12:26N 37°48' W 122°17'0 0.0
2015-Jun-22 11:32N 37°48' W 122°17'0 0.0
2015-Jun-22 10:33N 37°48' W 122°17'0 0.0
2015-Jun-22 09:28N 37°48' W 122°17'0 0.0
2015-Jun-22 08:31N 37°48' W 122°17'0 0.0
2015-Jun-22 07:29N 37°48' W 122°17'0 0.0
2015-Jun-22 06:30N 37°48' W 122°17'0 0.0
2015-Jun-22 05:33N 37°48' W 122°17'0 0.0
2015-Jun-22 04:31N 37°48' W 122°17'0 0.0
2015-Jun-22 03:32N 37°48' W 122°17'0 0.0
2015-Jun-22 02:32N 37°48' W 122°17'0 0.0
2015-Jun-22 01:33N 37°48' W 122°17'0 0.0
2015-Jun-22 00:33N 37°48' W 122°17'0 0.0
2015-Jun-21 23:31N 37°48' W 122°17'0 0.0
2015-Jun-21 22:32N 37°48' W 122°17'0 0.0
2015-Jun-21 21:32N 37°48' W 122°17'0 0.0
2015-Jun-21 20:30N 37°48' W 122°17'0 0.0
2015-Jun-21 19:28N 37°48' W 122°17'0 0.0
2015-Jun-21 18:31N 37°48' W 122°17'0 0.0
2015-Jun-21 17:32N 37°48' W 122°17'0 0.0
2015-Jun-21 16:33N 37°48' W 122°17'0 0.0
2015-Jun-21 15:33N 37°48' W 122°17'0 0.0
2015-Jun-21 14:28N 37°48' W 122°17'0 0.0
2015-Jun-21 13:29N 37°48' W 122°17'0 0.0
2015-Jun-21 12:32N 37°48' W 122°17'0 0.0
2015-Jun-21 11:33N 37°48' W 122°17'0 0.0
2015-Jun-21 10:34N 37°48' W 122°17'0 0.0
2015-Jun-21 09:31N 37°48' W 122°17'0 0.0
2015-Jun-21 08:32N 37°48' W 122°17'0 0.0
2015-Jun-21 07:33N 37°48' W 122°17'0 0.0
2015-Jun-21 06:33N 37°48' W 122°17'0 0.0
2015-Jun-21 05:31N 37°48' W 122°17'0 0.0
2015-Jun-21 04:32N 37°48' W 122°17'0 0.0
2015-Jun-21 03:29N 37°48' W 122°17'0 0.0
2015-Jun-21 02:30N 37°48' W 122°17'0 0.0
2015-Jun-21 01:33N 37°48' W 122°17'0 0.0
2015-Jun-21 00:31N 37°48' W 122°17'0 0.0
2015-Jun-20 23:32N 37°48' W 122°17'0 0.0
2015-Jun-20 22:32N 37°48' W 122°17'0 0.0
2015-Jun-20 21:33N 37°48' W 122°17'  

Dump ship's entire track history